sensor_id;sensor_type;location;lat;lon;timestamp;P1;durP1;ratioP1;P2;durP2;ratioP2
1701;SDS011;848;48.354;10.064;2023-10-08T00:01:31;8.07;;;5.68;;
1701;SDS011;848;48.354;10.064;2023-10-08T00:03:59;6.93;;;5.45;;
1701;SDS011;848;48.354;10.064;2023-10-08T00:06:29;8.60;;;6.13;;
1701;SDS011;848;48.354;10.064;2023-10-08T00:09:03;8.52;;;6.10;;
1701;SDS011;848;48.354;10.064;2023-10-08T00:11:44;9.10;;;6.05;;
1701;SDS011;848;48.354;10.064;2023-10-08T00:14:16;9.30;;;5.40;;
1701;SDS011;848;48.354;10.064;2023-10-08T00:16:50;9.07;;;6.53;;
1701;SDS011;848;48.354;10.064;2023-10-08T00:19:17;6.72;;;5.28;;
1701;SDS011;848;48.354;10.064;2023-10-08T00:21:46;11.75;;;6.50;;
1701;SDS011;848;48.354;10.064;2023-10-08T00:24:16;8.75;;;6.20;;
1701;SDS011;848;48.354;10.064;2023-10-08T00:26:51;7.32;;;6.15;;
1701;SDS011;848;48.354;10.064;2023-10-08T00:29:19;7.78;;;5.88;;
1701;SDS011;848;48.354;10.064;2023-10-08T00:31:47;8.65;;;6.32;;
1701;SDS011;848;48.354;10.064;2023-10-08T00:34:16;13.13;;;7.30;;
1701;SDS011;848;48.354;10.064;2023-10-08T00:36:45;8.95;;;6.38;;
1701;SDS011;848;48.354;10.064;2023-10-08T00:39:13;10.60;;;7.07;;
1701;SDS011;848;48.354;10.064;2023-10-08T00:41:47;9.05;;;6.90;;
1701;SDS011;848;48.354;10.064;2023-10-08T00:44:16;8.95;;;6.53;;
1701;SDS011;848;48.354;10.064;2023-10-08T00:46:48;11.88;;;7.13;;
1701;SDS011;848;48.354;10.064;2023-10-08T00:49:17;11.35;;;7.70;;
1701;SDS011;848;48.354;10.064;2023-10-08T00:52:00;10.82;;;6.63;;
1701;SDS011;848;48.354;10.064;2023-10-08T00:54:51;10.07;;;6.65;;
1701;SDS011;848;48.354;10.064;2023-10-08T00:57:34;12.50;;;8.30;;
1701;SDS011;848;48.354;10.064;2023-10-08T01:00:07;9.05;;;6.68;;
1701;SDS011;848;48.354;10.064;2023-10-08T01:02:42;12.38;;;7.30;;
1701;SDS011;848;48.354;10.064;2023-10-08T01:05:13;13.07;;;7.47;;
1701;SDS011;848;48.354;10.064;2023-10-08T01:07:44;9.05;;;6.75;;
1701;SDS011;848;48.354;10.064;2023-10-08T01:10:13;12.00;;;7.88;;
1701;SDS011;848;48.354;10.064;2023-10-08T01:12:45;9.32;;;6.30;;
1701;SDS011;848;48.354;10.064;2023-10-08T01:15:30;10.85;;;7.13;;
1701;SDS011;848;48.354;10.064;2023-10-08T01:18:01;12.30;;;7.18;;
1701;SDS011;848;48.354;10.064;2023-10-08T01:20:31;8.93;;;7.80;;
1701;SDS011;848;48.354;10.064;2023-10-08T01:23:05;11.43;;;8.13;;
1701;SDS011;848;48.354;10.064;2023-10-08T01:25:38;12.35;;;8.18;;
1701;SDS011;848;48.354;10.064;2023-10-08T01:28:46;10.25;;;8.30;;
1701;SDS011;848;48.354;10.064;2023-10-08T01:31:13;10.15;;;7.85;;
1701;SDS011;848;48.354;10.064;2023-10-08T01:33:40;10.27;;;7.88;;
1701;SDS011;848;48.354;10.064;2023-10-08T01:36:15;10.90;;;7.35;;
1701;SDS011;848;48.354;10.064;2023-10-08T01:38:41;9.27;;;7.22;;
1701;SDS011;848;48.354;10.064;2023-10-08T01:41:13;9.77;;;7.35;;
1701;SDS011;848;48.354;10.064;2023-10-08T01:44:04;9.90;;;6.97;;
1701;SDS011;848;48.354;10.064;2023-10-08T01:46:38;9.32;;;7.03;;
1701;SDS011;848;48.354;10.064;2023-10-08T01:49:15;9.20;;;7.00;;
1701;SDS011;848;48.354;10.064;2023-10-08T01:52:05;10.38;;;6.57;;
1701;SDS011;848;48.354;10.064;2023-10-08T01:55:00;9.80;;;6.85;;
1701;SDS011;848;48.354;10.064;2023-10-08T02:03:53;11.05;;;6.70;;
1701;SDS011;848;48.354;10.064;2023-10-08T02:06:29;8.55;;;7.10;;
1701;SDS011;848;48.354;10.064;2023-10-08T02:09:32;10.80;;;6.82;;
1701;SDS011;848;48.354;10.064;2023-10-08T02:14:55;10.30;;;6.70;;
1701;SDS011;848;48.354;10.064;2023-10-08T02:17:24;8.68;;;7.35;;
1701;SDS011;848;48.354;10.064;2023-10-08T02:19:51;7.65;;;6.05;;
1701;SDS011;848;48.354;10.064;2023-10-08T02:22:18;10.30;;;7.07;;
1701;SDS011;848;48.354;10.064;2023-10-08T02:24:45;12.32;;;6.95;;
1701;SDS011;848;48.354;10.064;2023-10-08T02:27:13;9.50;;;6.68;;
1701;SDS011;848;48.354;10.064;2023-10-08T02:29:40;9.50;;;6.40;;
1701;SDS011;848;48.354;10.064;2023-10-08T02:32:08;8.90;;;6.50;;
1701;SDS011;848;48.354;10.064;2023-10-08T02:34:36;9.57;;;7.72;;
1701;SDS011;848;48.354;10.064;2023-10-08T02:37:03;9.25;;;6.30;;
1701;SDS011;848;48.354;10.064;2023-10-08T02:39:30;8.90;;;6.35;;
1701;SDS011;848;48.354;10.064;2023-10-08T02:41:58;8.10;;;6.35;;
1701;SDS011;848;48.354;10.064;2023-10-08T02:44:25;10.23;;;7.55;;
1701;SDS011;848;48.354;10.064;2023-10-08T02:46:52;16.42;;;7.00;;
1701;SDS011;848;48.354;10.064;2023-10-08T02:49:20;9.75;;;6.32;;
1701;SDS011;848;48.354;10.064;2023-10-08T02:51:49;10.43;;;7.13;;
1701;SDS011;848;48.354;10.064;2023-10-08T02:54:17;13.18;;;7.68;;
1701;SDS011;848;48.354;10.064;2023-10-08T02:56:46;11.40;;;7.45;;
1701;SDS011;848;48.354;10.064;2023-10-08T02:59:16;10.00;;;6.50;;
1701;SDS011;848;48.354;10.064;2023-10-08T03:01:46;10.00;;;7.00;;
1701;SDS011;848;48.354;10.064;2023-10-08T03:04:14;12.00;;;7.57;;
1701;SDS011;848;48.354;10.064;2023-10-08T03:06:43;9.15;;;6.32;;
1701;SDS011;848;48.354;10.064;2023-10-08T03:09:15;11.05;;;7.00;;
1701;SDS011;848;48.354;10.064;2023-10-08T03:11:46;11.05;;;7.00;;
1701;SDS011;848;48.354;10.064;2023-10-08T03:14:13;9.90;;;7.05;;
1701;SDS011;848;48.354;10.064;2023-10-08T03:16:46;10.35;;;7.63;;
1701;SDS011;848;48.354;10.064;2023-10-08T03:19:15;10.00;;;7.38;;
1701;SDS011;848;48.354;10.064;2023-10-08T03:21:44;12.68;;;7.60;;
1701;SDS011;848;48.354;10.064;2023-10-08T03:24:17;10.90;;;7.28;;
1701;SDS011;848;48.354;10.064;2023-10-08T03:26:56;8.05;;;6.60;;
1701;SDS011;848;48.354;10.064;2023-10-08T03:29:31;11.75;;;7.82;;
1701;SDS011;848;48.354;10.064;2023-10-08T03:32:05;8.95;;;6.97;;
1701;SDS011;848;48.354;10.064;2023-10-08T03:34:38;14.13;;;6.97;;
1701;SDS011;848;48.354;10.064;2023-10-08T03:37:08;9.60;;;6.53;;
1701;SDS011;848;48.354;10.064;2023-10-08T03:39:42;11.25;;;7.00;;
1701;SDS011;848;48.354;10.064;2023-10-08T03:42:20;10.32;;;6.40;;
1701;SDS011;848;48.354;10.064;2023-10-08T03:44:49;12.52;;;7.55;;
1701;SDS011;848;48.354;10.064;2023-10-08T03:47:17;9.43;;;6.20;;
1701;SDS011;848;48.354;10.064;2023-10-08T03:49:47;10.13;;;7.03;;
1701;SDS011;848;48.354;10.064;2023-10-08T03:52:15;10.35;;;7.40;;
1701;SDS011;848;48.354;10.064;2023-10-08T03:54:45;10.57;;;6.97;;
1701;SDS011;848;48.354;10.064;2023-10-08T03:57:27;13.38;;;6.70;;
1701;SDS011;848;48.354;10.064;2023-10-08T04:00:06;10.68;;;6.85;;
1701;SDS011;848;48.354;10.064;2023-10-08T04:02:37;8.25;;;6.40;;
1701;SDS011;848;48.354;10.064;2023-10-08T04:05:06;9.90;;;6.47;;
1701;SDS011;848;48.354;10.064;2023-10-08T04:07:44;11.63;;;6.10;;
1701;SDS011;848;48.354;10.064;2023-10-08T04:10:32;13.52;;;7.85;;
1701;SDS011;848;48.354;10.064;2023-10-08T04:13:25;13.10;;;6.80;;
1701;SDS011;848;48.354;10.064;2023-10-08T04:15:53;9.88;;;7.28;;
1701;SDS011;848;48.354;10.064;2023-10-08T04:18:20;8.70;;;6.10;;
1701;SDS011;848;48.354;10.064;2023-10-08T04:20:47;8.85;;;5.55;;
1701;SDS011;848;48.354;10.064;2023-10-08T04:23:25;9.48;;;6.90;;
1701;SDS011;848;48.354;10.064;2023-10-08T04:25:55;10.10;;;6.47;;
1701;SDS011;848;48.354;10.064;2023-10-08T04:28:22;10.88;;;7.25;;
1701;SDS011;848;48.354;10.064;2023-10-08T04:30:53;13.77;;;6.03;;
1701;SDS011;848;48.354;10.064;2023-10-08T04:33:26;10.65;;;6.47;;
1701;SDS011;848;48.354;10.064;2023-10-08T04:35:56;8.10;;;6.32;;
1701;SDS011;848;48.354;10.064;2023-10-08T04:38:27;11.32;;;7.45;;
1701;SDS011;848;48.354;10.064;2023-10-08T04:40:57;9.57;;;6.32;;
1701;SDS011;848;48.354;10.064;2023-10-08T04:43:27;9.60;;;6.50;;
1701;SDS011;848;48.354;10.064;2023-10-08T04:45:55;9.73;;;6.60;;
1701;SDS011;848;48.354;10.064;2023-10-08T04:48:23;9.05;;;6.22;;
1701;SDS011;848;48.354;10.064;2023-10-08T04:50:51;9.43;;;6.60;;
1701;SDS011;848;48.354;10.064;2023-10-08T04:53:25;8.57;;;6.25;;
1701;SDS011;848;48.354;10.064;2023-10-08T04:55:58;9.10;;;5.90;;
1701;SDS011;848;48.354;10.064;2023-10-08T04:58:30;9.50;;;5.60;;
1701;SDS011;848;48.354;10.064;2023-10-08T05:01:01;9.07;;;6.25;;
1701;SDS011;848;48.354;10.064;2023-10-08T05:03:55;9.98;;;6.45;;
1701;SDS011;848;48.354;10.064;2023-10-08T05:06:36;10.68;;;5.88;;
1701;SDS011;848;48.354;10.064;2023-10-08T05:09:15;9.35;;;5.50;;
1701;SDS011;848;48.354;10.064;2023-10-08T05:11:48;11.82;;;6.15;;
1701;SDS011;848;48.354;10.064;2023-10-08T05:14:36;7.22;;;5.05;;
1701;SDS011;848;48.354;10.064;2023-10-08T05:17:20;8.45;;;5.55;;
1701;SDS011;848;48.354;10.064;2023-10-08T05:19:49;10.02;;;6.15;;
1701;SDS011;848;48.354;10.064;2023-10-08T05:22:34;9.65;;;5.80;;
1701;SDS011;848;48.354;10.064;2023-10-08T05:25:10;8.85;;;5.53;;
1701;SDS011;848;48.354;10.064;2023-10-08T05:27:51;9.13;;;5.95;;
1701;SDS011;848;48.354;10.064;2023-10-08T05:30:24;12.82;;;6.72;;
1701;SDS011;848;48.354;10.064;2023-10-08T05:32:53;9.32;;;5.90;;
1701;SDS011;848;48.354;10.064;2023-10-08T05:35:39;9.07;;;6.28;;
1701;SDS011;848;48.354;10.064;2023-10-08T05:38:16;8.73;;;5.70;;
1701;SDS011;848;48.354;10.064;2023-10-08T05:40:48;9.60;;;6.13;;
1701;SDS011;848;48.354;10.064;2023-10-08T05:43:38;10.55;;;5.97;;
1701;SDS011;848;48.354;10.064;2023-10-08T05:46:20;7.05;;;5.47;;
1701;SDS011;848;48.354;10.064;2023-10-08T05:49:12;10.32;;;5.95;;
1701;SDS011;848;48.354;10.064;2023-10-08T05:51:52;7.80;;;5.63;;
1701;SDS011;848;48.354;10.064;2023-10-08T05:54:50;12.77;;;6.90;;
1701;SDS011;848;48.354;10.064;2023-10-08T05:57:43;10.35;;;6.40;;
1701;SDS011;848;48.354;10.064;2023-10-08T06:00:17;8.57;;;5.95;;
1701;SDS011;848;48.354;10.064;2023-10-08T06:03:10;10.88;;;6.40;;
1701;SDS011;848;48.354;10.064;2023-10-08T06:05:56;10.20;;;6.22;;
1701;SDS011;848;48.354;10.064;2023-10-08T06:08:49;10.98;;;5.50;;
1701;SDS011;848;48.354;10.064;2023-10-08T06:11:17;8.35;;;6.28;;
1701;SDS011;848;48.354;10.064;2023-10-08T06:14:02;9.77;;;6.57;;
1701;SDS011;848;48.354;10.064;2023-10-08T06:16:38;9.10;;;5.97;;
1701;SDS011;848;48.354;10.064;2023-10-08T06:19:09;10.55;;;6.65;;
1701;SDS011;848;48.354;10.064;2023-10-08T06:21:36;16.42;;;12.70;;
1701;SDS011;848;48.354;10.064;2023-10-08T06:24:06;11.27;;;8.13;;
1701;SDS011;848;48.354;10.064;2023-10-08T06:26:36;12.05;;;8.45;;
1701;SDS011;848;48.354;10.064;2023-10-08T06:29:07;13.02;;;8.48;;
1701;SDS011;848;48.354;10.064;2023-10-08T06:31:44;14.38;;;8.95;;
1701;SDS011;848;48.354;10.064;2023-10-08T06:34:16;15.05;;;10.18;;
1701;SDS011;848;48.354;10.064;2023-10-08T06:36:46;19.25;;;17.17;;
1701;SDS011;848;48.354;10.064;2023-10-08T06:39:16;16.00;;;12.10;;
1701;SDS011;848;48.354;10.064;2023-10-08T06:41:44;13.45;;;8.55;;
1701;SDS011;848;48.354;10.064;2023-10-08T06:44:12;7.97;;;6.35;;
1701;SDS011;848;48.354;10.064;2023-10-08T06:46:40;11.80;;;5.88;;
1701;SDS011;848;48.354;10.064;2023-10-08T06:49:08;8.55;;;6.10;;
1701;SDS011;848;48.354;10.064;2023-10-08T06:51:38;14.65;;;5.82;;
1701;SDS011;848;48.354;10.064;2023-10-08T06:54:06;7.65;;;5.57;;
1701;SDS011;848;48.354;10.064;2023-10-08T06:56:37;12.37;;;6.70;;
1701;SDS011;848;48.354;10.064;2023-10-08T06:59:04;10.02;;;6.75;;
1701;SDS011;848;48.354;10.064;2023-10-08T07:01:34;11.75;;;6.38;;
1701;SDS011;848;48.354;10.064;2023-10-08T07:04:05;11.18;;;5.75;;
1701;SDS011;848;48.354;10.064;2023-10-08T07:06:37;10.27;;;5.60;;
1701;SDS011;848;48.354;10.064;2023-10-08T07:09:04;11.95;;;6.50;;
1701;SDS011;848;48.354;10.064;2023-10-08T07:11:40;10.27;;;6.90;;
1701;SDS011;848;48.354;10.064;2023-10-08T07:14:10;8.57;;;5.82;;
1701;SDS011;848;48.354;10.064;2023-10-08T07:16:39;10.02;;;4.88;;
1701;SDS011;848;48.354;10.064;2023-10-08T07:19:07;7.78;;;5.10;;
1701;SDS011;848;48.354;10.064;2023-10-08T07:21:44;12.35;;;6.32;;
1701;SDS011;848;48.354;10.064;2023-10-08T07:24:12;14.25;;;7.82;;
1701;SDS011;848;48.354;10.064;2023-10-08T07:26:44;10.52;;;6.47;;
1701;SDS011;848;48.354;10.064;2023-10-08T07:29:12;8.20;;;5.22;;
1701;SDS011;848;48.354;10.064;2023-10-08T07:31:42;10.52;;;5.35;;
1701;SDS011;848;48.354;10.064;2023-10-08T07:34:13;20.38;;;10.02;;
1701;SDS011;848;48.354;10.064;2023-10-08T07:36:50;8.50;;;5.85;;
1701;SDS011;848;48.354;10.064;2023-10-08T07:39:21;8.13;;;6.13;;
1701;SDS011;848;48.354;10.064;2023-10-08T07:41:53;8.48;;;5.50;;
1701;SDS011;848;48.354;10.064;2023-10-08T07:44:20;9.98;;;6.30;;
1701;SDS011;848;48.354;10.064;2023-10-08T07:46:48;10.95;;;7.90;;
1701;SDS011;848;48.354;10.064;2023-10-08T07:49:16;10.50;;;6.05;;
1701;SDS011;848;48.354;10.064;2023-10-08T07:51:43;10.20;;;5.93;;
1701;SDS011;848;48.354;10.064;2023-10-08T07:54:16;11.45;;;6.32;;
1701;SDS011;848;48.354;10.064;2023-10-08T07:56:45;11.85;;;6.50;;
1701;SDS011;848;48.354;10.064;2023-10-08T07:59:14;9.07;;;5.68;;
1701;SDS011;848;48.354;10.064;2023-10-08T08:01:42;9.18;;;5.75;;
1701;SDS011;848;48.354;10.064;2023-10-08T08:04:10;9.32;;;5.57;;
1701;SDS011;848;48.354;10.064;2023-10-08T08:06:46;8.75;;;6.55;;
1701;SDS011;848;48.354;10.064;2023-10-08T08:09:15;7.47;;;5.40;;
1701;SDS011;848;48.354;10.064;2023-10-08T08:11:44;12.63;;;5.75;;
1701;SDS011;848;48.354;10.064;2023-10-08T08:14:12;10.02;;;6.03;;
1701;SDS011;848;48.354;10.064;2023-10-08T08:16:43;9.02;;;6.00;;
1701;SDS011;848;48.354;10.064;2023-10-08T08:19:13;15.32;;;5.68;;
1701;SDS011;848;48.354;10.064;2023-10-08T08:21:42;10.38;;;5.68;;
1701;SDS011;848;48.354;10.064;2023-10-08T08:24:10;10.38;;;5.85;;
1701;SDS011;848;48.354;10.064;2023-10-08T08:26:38;10.45;;;6.40;;
1701;SDS011;848;48.354;10.064;2023-10-08T08:29:09;9.70;;;6.47;;
1701;SDS011;848;48.354;10.064;2023-10-08T08:31:41;8.70;;;5.68;;
1701;SDS011;848;48.354;10.064;2023-10-08T08:34:11;15.73;;;6.50;;
1701;SDS011;848;48.354;10.064;2023-10-08T08:36:44;9.55;;;5.45;;
1701;SDS011;848;48.354;10.064;2023-10-08T08:39:14;10.75;;;6.18;;
1701;SDS011;848;48.354;10.064;2023-10-08T08:41:54;10.57;;;5.85;;
1701;SDS011;848;48.354;10.064;2023-10-08T08:44:27;8.65;;;5.00;;
1701;SDS011;848;48.354;10.064;2023-10-08T08:47:00;14.85;;;6.78;;
1701;SDS011;848;48.354;10.064;2023-10-08T08:49:29;8.18;;;5.40;;
1701;SDS011;848;48.354;10.064;2023-10-08T08:52:00;13.27;;;6.45;;
1701;SDS011;848;48.354;10.064;2023-10-08T08:54:30;10.57;;;5.63;;
1701;SDS011;848;48.354;10.064;2023-10-08T08:56:57;9.75;;;5.38;;
1701;SDS011;848;48.354;10.064;2023-10-08T08:59:29;11.00;;;6.03;;
1701;SDS011;848;48.354;10.064;2023-10-08T09:01:57;11.88;;;5.85;;
1701;SDS011;848;48.354;10.064;2023-10-08T09:04:29;16.20;;;6.93;;
1701;SDS011;848;48.354;10.064;2023-10-08T09:06:58;7.72;;;5.70;;
1701;SDS011;848;48.354;10.064;2023-10-08T09:09:35;11.88;;;5.68;;
1701;SDS011;848;48.354;10.064;2023-10-08T09:12:05;9.05;;;5.70;;
1701;SDS011;848;48.354;10.064;2023-10-08T09:14:35;15.68;;;6.45;;
1701;SDS011;848;48.354;10.064;2023-10-08T09:17:04;9.68;;;6.30;;
1701;SDS011;848;48.354;10.064;2023-10-08T09:19:42;14.18;;;6.72;;
1701;SDS011;848;48.354;10.064;2023-10-08T09:22:09;11.25;;;5.95;;
1701;SDS011;848;48.354;10.064;2023-10-08T09:24:38;10.05;;;5.70;;
1701;SDS011;848;48.354;10.064;2023-10-08T09:27:09;12.77;;;6.30;;
1701;SDS011;848;48.354;10.064;2023-10-08T09:29:39;8.70;;;5.32;;
1701;SDS011;848;48.354;10.064;2023-10-08T09:32:14;11.90;;;5.68;;
1701;SDS011;848;48.354;10.064;2023-10-08T09:34:48;9.30;;;5.55;;
1701;SDS011;848;48.354;10.064;2023-10-08T09:37:16;11.50;;;5.45;;
1701;SDS011;848;48.354;10.064;2023-10-08T09:39:47;10.77;;;4.82;;
1701;SDS011;848;48.354;10.064;2023-10-08T09:42:17;13.00;;;6.75;;
1701;SDS011;848;48.354;10.064;2023-10-08T09:44:47;7.97;;;5.15;;
1701;SDS011;848;48.354;10.064;2023-10-08T09:47:18;8.48;;;5.50;;
1701;SDS011;848;48.354;10.064;2023-10-08T09:50:01;8.38;;;4.78;;
1701;SDS011;848;48.354;10.064;2023-10-08T09:52:34;10.75;;;4.80;;
1701;SDS011;848;48.354;10.064;2023-10-08T09:55:07;7.88;;;4.18;;
1701;SDS011;848;48.354;10.064;2023-10-08T09:57:36;8.05;;;4.32;;
1701;SDS011;848;48.354;10.064;2023-10-08T10:00:04;8.40;;;4.10;;
1701;SDS011;848;48.354;10.064;2023-10-08T10:02:37;9.95;;;5.13;;
1701;SDS011;848;48.354;10.064;2023-10-08T10:05:04;11.00;;;5.22;;
1701;SDS011;848;48.354;10.064;2023-10-08T10:07:31;7.07;;;4.38;;
1701;SDS011;848;48.354;10.064;2023-10-08T10:10:01;9.32;;;4.10;;
1701;SDS011;848;48.354;10.064;2023-10-08T10:12:39;7.85;;;4.00;;
1701;SDS011;848;48.354;10.064;2023-10-08T10:15:17;10.57;;;4.70;;
1701;SDS011;848;48.354;10.064;2023-10-08T10:21:25;9.07;;;4.18;;
1701;SDS011;848;48.354;10.064;2023-10-08T10:24:03;9.68;;;4.13;;
1701;SDS011;848;48.354;10.064;2023-10-08T10:26:31;10.35;;;4.55;;
1701;SDS011;848;48.354;10.064;2023-10-08T10:29:18;6.03;;;4.00;;
1701;SDS011;848;48.354;10.064;2023-10-08T10:31:51;22.15;;;10.80;;
1701;SDS011;848;48.354;10.064;2023-10-08T10:34:19;13.23;;;7.32;;
1701;SDS011;848;48.354;10.064;2023-10-08T10:36:50;12.48;;;5.35;;
1701;SDS011;848;48.354;10.064;2023-10-08T10:39:24;9.82;;;4.70;;
1701;SDS011;848;48.354;10.064;2023-10-08T10:41:55;17.08;;;5.32;;
1701;SDS011;848;48.354;10.064;2023-10-08T10:44:26;9.90;;;5.50;;
1701;SDS011;848;48.354;10.064;2023-10-08T10:46:55;10.02;;;4.00;;
1701;SDS011;848;48.354;10.064;2023-10-08T10:49:36;9.68;;;3.92;;
1701;SDS011;848;48.354;10.064;2023-10-08T10:52:14;9.15;;;4.15;;
1701;SDS011;848;48.354;10.064;2023-10-08T10:54:51;10.05;;;4.15;;
1701;SDS011;848;48.354;10.064;2023-10-08T10:57:24;11.68;;;3.60;;
1701;SDS011;848;48.354;10.064;2023-10-08T11:00:00;8.07;;;4.75;;
1701;SDS011;848;48.354;10.064;2023-10-08T11:02:50;9.77;;;4.28;;
1701;SDS011;848;48.354;10.064;2023-10-08T11:05:16;12.57;;;4.40;;
1701;SDS011;848;48.354;10.064;2023-10-08T11:07:46;12.00;;;4.22;;
1701;SDS011;848;48.354;10.064;2023-10-08T11:10:14;12.00;;;5.25;;
1701;SDS011;848;48.354;10.064;2023-10-08T11:12:41;9.23;;;4.03;;
1701;SDS011;848;48.354;10.064;2023-10-08T11:15:12;13.50;;;5.00;;
1701;SDS011;848;48.354;10.064;2023-10-08T11:17:40;9.07;;;4.00;;
1701;SDS011;848;48.354;10.064;2023-10-08T11:20:22;7.88;;;3.90;;
1701;SDS011;848;48.354;10.064;2023-10-08T11:22:51;11.60;;;5.25;;
1701;SDS011;848;48.354;10.064;2023-10-08T11:25:20;12.55;;;4.80;;
1701;SDS011;848;48.354;10.064;2023-10-08T11:27:50;8.75;;;4.82;;
1701;SDS011;848;48.354;10.064;2023-10-08T11:30:24;11.70;;;4.15;;
1701;SDS011;848;48.354;10.064;2023-10-08T11:32:55;9.80;;;5.57;;
1701;SDS011;848;48.354;10.064;2023-10-08T11:35:24;7.75;;;4.28;;
1701;SDS011;848;48.354;10.064;2023-10-08T11:37:57;8.45;;;4.40;;
1701;SDS011;848;48.354;10.064;2023-10-08T11:40:26;9.88;;;4.68;;
1701;SDS011;848;48.354;10.064;2023-10-08T11:42:54;8.55;;;4.07;;
1701;SDS011;848;48.354;10.064;2023-10-08T11:45:24;9.60;;;5.10;;
1701;SDS011;848;48.354;10.064;2023-10-08T11:47:52;9.30;;;5.53;;
1701;SDS011;848;48.354;10.064;2023-10-08T11:50:22;8.50;;;4.45;;
1701;SDS011;848;48.354;10.064;2023-10-08T11:52:57;11.57;;;4.55;;
1701;SDS011;848;48.354;10.064;2023-10-08T11:55:28;8.68;;;5.60;;
1701;SDS011;848;48.354;10.064;2023-10-08T11:57:55;10.95;;;5.00;;
1701;SDS011;848;48.354;10.064;2023-10-08T12:00:22;10.55;;;5.18;;
1701;SDS011;848;48.354;10.064;2023-10-08T12:02:51;12.82;;;5.10;;
1701;SDS011;848;48.354;10.064;2023-10-08T12:05:19;9.85;;;4.90;;
1701;SDS011;848;48.354;10.064;2023-10-08T12:07:48;11.27;;;5.50;;
1701;SDS011;848;48.354;10.064;2023-10-08T12:10:18;17.33;;;5.68;;
1701;SDS011;848;48.354;10.064;2023-10-08T12:12:48;14.30;;;6.30;;
1701;SDS011;848;48.354;10.064;2023-10-08T12:15:17;9.60;;;5.87;;
1701;SDS011;848;48.354;10.064;2023-10-08T12:17:48;10.23;;;5.90;;
1701;SDS011;848;48.354;10.064;2023-10-08T12:20:34;22.50;;;12.02;;
1701;SDS011;848;48.354;10.064;2023-10-08T12:23:03;15.55;;;10.05;;
1701;SDS011;848;48.354;10.064;2023-10-08T12:25:32;10.38;;;6.13;;
1701;SDS011;848;48.354;10.064;2023-10-08T12:27:59;10.60;;;5.50;;
1701;SDS011;848;48.354;10.064;2023-10-08T12:30:29;11.15;;;5.60;;
1701;SDS011;848;48.354;10.064;2023-10-08T12:32:57;11.15;;;5.22;;
1701;SDS011;848;48.354;10.064;2023-10-08T12:35:25;9.13;;;4.72;;
1701;SDS011;848;48.354;10.064;2023-10-08T12:37:54;9.20;;;4.68;;
1701;SDS011;848;48.354;10.064;2023-10-08T12:40:22;10.00;;;5.60;;
1701;SDS011;848;48.354;10.064;2023-10-08T12:42:50;8.73;;;4.50;;
1701;SDS011;848;48.354;10.064;2023-10-08T12:45:18;8.95;;;5.45;;
1701;SDS011;848;48.354;10.064;2023-10-08T12:47:47;9.25;;;5.03;;
1701;SDS011;848;48.354;10.064;2023-10-08T12:50:15;10.75;;;6.20;;
1701;SDS011;848;48.354;10.064;2023-10-08T12:52:43;12.63;;;4.95;;
1701;SDS011;848;48.354;10.064;2023-10-08T12:55:18;15.23;;;5.78;;
1701;SDS011;848;48.354;10.064;2023-10-08T12:57:50;7.63;;;4.25;;
1701;SDS011;848;48.354;10.064;2023-10-08T13:00:21;9.82;;;4.72;;
1701;SDS011;848;48.354;10.064;2023-10-08T13:02:49;6.85;;;4.75;;
1701;SDS011;848;48.354;10.064;2023-10-08T13:05:19;10.30;;;4.63;;
1701;SDS011;848;48.354;10.064;2023-10-08T13:07:53;15.25;;;5.35;;
1701;SDS011;848;48.354;10.064;2023-10-08T13:10:21;9.80;;;5.20;;
1701;SDS011;848;48.354;10.064;2023-10-08T13:12:48;12.27;;;5.30;;
1701;SDS011;848;48.354;10.064;2023-10-08T13:15:17;11.68;;;5.35;;
1701;SDS011;848;48.354;10.064;2023-10-08T13:17:44;8.65;;;4.75;;
1701;SDS011;848;48.354;10.064;2023-10-08T13:20:11;11.70;;;4.97;;
1701;SDS011;848;48.354;10.064;2023-10-08T13:22:40;11.43;;;5.57;;
1701;SDS011;848;48.354;10.064;2023-10-08T13:25:08;12.88;;;5.85;;
1701;SDS011;848;48.354;10.064;2023-10-08T13:27:37;9.95;;;4.55;;
1701;SDS011;848;48.354;10.064;2023-10-08T13:30:07;9.80;;;5.05;;
1701;SDS011;848;48.354;10.064;2023-10-08T13:32:35;9.27;;;5.13;;
1701;SDS011;848;48.354;10.064;2023-10-08T13:35:02;14.33;;;5.53;;
1701;SDS011;848;48.354;10.064;2023-10-08T13:37:32;11.10;;;4.20;;
1701;SDS011;848;48.354;10.064;2023-10-08T13:40:00;13.63;;;4.93;;
1701;SDS011;848;48.354;10.064;2023-10-08T13:42:27;12.15;;;5.07;;
1701;SDS011;848;48.354;10.064;2023-10-08T13:44:54;10.43;;;4.63;;
1701;SDS011;848;48.354;10.064;2023-10-08T13:47:24;8.80;;;5.25;;
1701;SDS011;848;48.354;10.064;2023-10-08T13:49:53;9.68;;;5.20;;
1701;SDS011;848;48.354;10.064;2023-10-08T13:52:22;8.80;;;4.95;;
1701;SDS011;848;48.354;10.064;2023-10-08T13:54:51;16.75;;;5.28;;
1701;SDS011;848;48.354;10.064;2023-10-08T13:57:18;17.23;;;5.22;;
1701;SDS011;848;48.354;10.064;2023-10-08T13:59:45;9.30;;;4.95;;
1701;SDS011;848;48.354;10.064;2023-10-08T14:02:13;14.90;;;6.55;;
1701;SDS011;848;48.354;10.064;2023-10-08T14:04:48;8.13;;;4.03;;
1701;SDS011;848;48.354;10.064;2023-10-08T14:07:18;6.93;;;4.40;;
1701;SDS011;848;48.354;10.064;2023-10-08T14:09:46;9.10;;;3.85;;
1701;SDS011;848;48.354;10.064;2023-10-08T14:12:15;9.52;;;5.05;;
1701;SDS011;848;48.354;10.064;2023-10-08T14:14:42;12.90;;;4.55;;
1701;SDS011;848;48.354;10.064;2023-10-08T14:17:10;10.98;;;5.60;;
1701;SDS011;848;48.354;10.064;2023-10-08T14:19:40;12.30;;;4.53;;
1701;SDS011;848;48.354;10.064;2023-10-08T14:22:18;8.57;;;4.45;;
1701;SDS011;848;48.354;10.064;2023-10-08T14:24:47;12.32;;;4.38;;
1701;SDS011;848;48.354;10.064;2023-10-08T14:27:23;11.70;;;4.25;;
1701;SDS011;848;48.354;10.064;2023-10-08T14:29:56;11.98;;;4.78;;
1701;SDS011;848;48.354;10.064;2023-10-08T14:32:26;8.27;;;4.32;;
1701;SDS011;848;48.354;10.064;2023-10-08T14:34:53;12.20;;;4.53;;
1701;SDS011;848;48.354;10.064;2023-10-08T14:37:39;10.63;;;4.45;;
1701;SDS011;848;48.354;10.064;2023-10-08T14:40:23;7.72;;;5.03;;
1701;SDS011;848;48.354;10.064;2023-10-08T14:43:13;12.10;;;4.90;;
1701;SDS011;848;48.354;10.064;2023-10-08T14:45:41;12.60;;;4.85;;
1701;SDS011;848;48.354;10.064;2023-10-08T14:48:12;10.52;;;5.38;;
1701;SDS011;848;48.354;10.064;2023-10-08T14:50:39;10.70;;;4.70;;
1701;SDS011;848;48.354;10.064;2023-10-08T14:53:08;9.13;;;4.68;;
1701;SDS011;848;48.354;10.064;2023-10-08T14:55:35;13.48;;;4.82;;
1701;SDS011;848;48.354;10.064;2023-10-08T14:58:02;13.98;;;5.13;;
1701;SDS011;848;48.354;10.064;2023-10-08T15:00:32;13.82;;;4.75;;
1701;SDS011;848;48.354;10.064;2023-10-08T15:03:01;8.23;;;4.50;;
1701;SDS011;848;48.354;10.064;2023-10-08T15:05:29;8.55;;;4.55;;
1701;SDS011;848;48.354;10.064;2023-10-08T15:07:56;8.35;;;4.35;;
1701;SDS011;848;48.354;10.064;2023-10-08T15:10:25;13.88;;;5.07;;
1701;SDS011;848;48.354;10.064;2023-10-08T15:12:52;8.77;;;5.60;;
1701;SDS011;848;48.354;10.064;2023-10-08T15:15:19;15.68;;;6.15;;
1701;SDS011;848;48.354;10.064;2023-10-08T15:17:50;11.68;;;4.45;;
1701;SDS011;848;48.354;10.064;2023-10-08T15:20:17;8.25;;;4.60;;
1701;SDS011;848;48.354;10.064;2023-10-08T15:22:45;10.70;;;4.32;;
1701;SDS011;848;48.354;10.064;2023-10-08T15:25:13;13.68;;;4.68;;
1701;SDS011;848;48.354;10.064;2023-10-08T15:27:43;12.93;;;5.32;;
1701;SDS011;848;48.354;10.064;2023-10-08T15:30:13;10.43;;;4.35;;
1701;SDS011;848;48.354;10.064;2023-10-08T15:32:42;11.82;;;6.03;;
1701;SDS011;848;48.354;10.064;2023-10-08T15:35:11;10.25;;;4.40;;
1701;SDS011;848;48.354;10.064;2023-10-08T15:37:41;11.98;;;4.90;;
1701;SDS011;848;48.354;10.064;2023-10-08T15:40:09;12.27;;;5.60;;
1701;SDS011;848;48.354;10.064;2023-10-08T15:42:44;13.00;;;4.85;;
1701;SDS011;848;48.354;10.064;2023-10-08T15:45:15;9.98;;;5.00;;
1701;SDS011;848;48.354;10.064;2023-10-08T15:47:42;11.63;;;5.53;;
1701;SDS011;848;48.354;10.064;2023-10-08T15:50:09;9.75;;;4.93;;